sensor_id;sensor_type;location;lat;lon;timestamp;temperature;humidity
1155;DHT22;566;48.414;9.118;2023-02-15T00:01:51;-0.50;98.00
1155;DHT22;566;48.414;9.118;2023-02-15T00:04:20;-0.40;98.00
1155;DHT22;566;48.414;9.118;2023-02-15T00:06:46;-0.30;98.00
1155;DHT22;566;48.414;9.118;2023-02-15T00:09:12;-0.20;98.00
1155;DHT22;566;48.414;9.118;2023-02-15T00:11:38;-0.10;98.00
1155;DHT22;566;48.414;9.118;2023-02-15T00:14:19;0.00;98.00
1155;DHT22;566;48.414;9.118;2023-02-15T00:16:46;0.00;98.00
1155;DHT22;566;48.414;9.118;2023-02-15T00:19:13;0.10;97.00
1155;DHT22;566;48.414;9.118;2023-02-15T00:21:40;0.10;96.90
1155;DHT22;566;48.414;9.118;2023-02-15T00:24:07;0.20;96.40
1155;DHT22;566;48.414;9.118;2023-02-15T00:26:33;0.20;96.70
1155;DHT22;566;48.414;9.118;2023-02-15T00:29:00;0.00;96.90
1155;DHT22;566;48.414;9.118;2023-02-15T00:31:27;0.00;97.00
1155;DHT22;566;48.414;9.118;2023-02-15T00:33:53;-0.10;97.20
1155;DHT22;566;48.414;9.118;2023-02-15T00:36:19;0.00;96.90
1155;DHT22;566;48.414;9.118;2023-02-15T00:38:45;0.20;96.90
1155;DHT22;566;48.414;9.118;2023-02-15T00:41:11;0.20;96.50
1155;DHT22;566;48.414;9.118;2023-02-15T00:43:37;0.10;96.30
1155;DHT22;566;48.414;9.118;2023-02-15T00:46:04;0.20;96.20
1155;DHT22;566;48.414;9.118;2023-02-15T00:48:30;0.30;96.00
1155;DHT22;566;48.414;9.118;2023-02-15T00:50:58;0.30;95.90
1155;DHT22;566;48.414;9.118;2023-02-15T00:53:25;0.30;95.40
1155;DHT22;566;48.414;9.118;2023-02-15T00:55:51;0.20;94.90
1155;DHT22;566;48.414;9.118;2023-02-15T00:58:17;0.10;94.80
1155;DHT22;566;48.414;9.118;2023-02-15T01:00:45;0.00;95.50
1155;DHT22;566;48.414;9.118;2023-02-15T01:03:11;-0.10;95.60
1155;DHT22;566;48.414;9.118;2023-02-15T01:05:37;-0.10;95.50
1155;DHT22;566;48.414;9.118;2023-02-15T01:08:03;-0.10;95.60
1155;DHT22;566;48.414;9.118;2023-02-15T01:10:28;-0.10;96.40
1155;DHT22;566;48.414;9.118;2023-02-15T01:12:55;0.00;97.00
1155;DHT22;566;48.414;9.118;2023-02-15T01:15:21;0.00;97.30
1155;DHT22;566;48.414;9.118;2023-02-15T01:17:48;0.10;97.20
1155;DHT22;566;48.414;9.118;2023-02-15T01:20:25;0.40;96.60
1155;DHT22;566;48.414;9.118;2023-02-15T01:22:54;0.60;95.80
1155;DHT22;566;48.414;9.118;2023-02-15T01:25:21;0.60;95.30
1155;DHT22;566;48.414;9.118;2023-02-15T01:27:47;0.60;94.50
1155;DHT22;566;48.414;9.118;2023-02-15T01:30:13;0.40;94.00
1155;DHT22;566;48.414;9.118;2023-02-15T01:32:40;0.30;93.40
1155;DHT22;566;48.414;9.118;2023-02-15T01:35:06;0.20;94.50
1155;DHT22;566;48.414;9.118;2023-02-15T01:37:32;0.00;94.60
1155;DHT22;566;48.414;9.118;2023-02-15T01:40:05;-0.10;94.40
1155;DHT22;566;48.414;9.118;2023-02-15T01:42:32;-0.10;94.10
1155;DHT22;566;48.414;9.118;2023-02-15T01:47:43;-0.20;95.80
1155;DHT22;566;48.414;9.118;2023-02-15T01:50:14;-0.30;96.10
1155;DHT22;566;48.414;9.118;2023-02-15T01:52:58;-0.30;96.40
1155;DHT22;566;48.414;9.118;2023-02-15T01:55:31;-0.30;96.30
1155;DHT22;566;48.414;9.118;2023-02-15T01:57:58;-0.30;95.80
1155;DHT22;566;48.414;9.118;2023-02-15T02:00:24;-0.10;95.10
1155;DHT22;566;48.414;9.118;2023-02-15T02:02:52;-0.10;94.70
1155;DHT22;566;48.414;9.118;2023-02-15T02:05:18;-0.10;94.40
1155;DHT22;566;48.414;9.118;2023-02-15T02:07:45;-0.30;94.00
1155;DHT22;566;48.414;9.118;2023-02-15T02:10:16;-0.20;93.80
1155;DHT22;566;48.414;9.118;2023-02-15T02:12:45;-0.30;94.50
1155;DHT22;566;48.414;9.118;2023-02-15T02:15:12;-0.20;94.20
1155;DHT22;566;48.414;9.118;2023-02-15T02:20:43;-0.20;94.00
1155;DHT22;566;48.414;9.118;2023-02-15T02:23:25;-0.30;94.40
1155;DHT22;566;48.414;9.118;2023-02-15T02:34:05;-0.10;93.60
1155;DHT22;566;48.414;9.118;2023-02-15T02:39:42;-0.10;93.50
1155;DHT22;566;48.414;9.118;2023-02-15T02:42:48;-0.10;92.70
1155;DHT22;566;48.414;9.118;2023-02-15T02:45:35;0.20;91.30
1155;DHT22;566;48.414;9.118;2023-02-15T02:48:13;0.40;90.40
1155;DHT22;566;48.414;9.118;2023-02-15T02:50:41;0.40;90.10
1155;DHT22;566;48.414;9.118;2023-02-15T02:53:09;0.30;90.40
1155;DHT22;566;48.414;9.118;2023-02-15T02:55:53;0.30;90.20
1155;DHT22;566;48.414;9.118;2023-02-15T02:58:27;0.20;90.70
1155;DHT22;566;48.414;9.118;2023-02-15T03:00:57;0.10;91.00
1155;DHT22;566;48.414;9.118;2023-02-15T03:03:30;0.10;90.40
1155;DHT22;566;48.414;9.118;2023-02-15T03:06:01;0.20;90.00
1155;DHT22;566;48.414;9.118;2023-02-15T03:08:42;0.20;91.40
1155;DHT22;566;48.414;9.118;2023-02-15T03:11:13;0.00;92.20
1155;DHT22;566;48.414;9.118;2023-02-15T03:13:39;0.00;93.10
1155;DHT22;566;48.414;9.118;2023-02-15T03:16:06;0.00;93.40
1155;DHT22;566;48.414;9.118;2023-02-15T03:19:12;-0.10;93.50
1155;DHT22;566;48.414;9.118;2023-02-15T03:24:21;0.20;91.70
1155;DHT22;566;48.414;9.118;2023-02-15T03:26:50;0.40;91.00
1155;DHT22;566;48.414;9.118;2023-02-15T03:29:19;0.60;90.30
1155;DHT22;566;48.414;9.118;2023-02-15T03:31:49;0.80;89.50
1155;DHT22;566;48.414;9.118;2023-02-15T03:34:17;1.00;88.70
1155;DHT22;566;48.414;9.118;2023-02-15T03:36:44;1.10;88.40
1155;DHT22;566;48.414;9.118;2023-02-15T03:39:21;1.40;87.30
1155;DHT22;566;48.414;9.118;2023-02-15T03:42:19;1.50;86.40
1155;DHT22;566;48.414;9.118;2023-02-15T03:44:54;1.50;86.40
1155;DHT22;566;48.414;9.118;2023-02-15T03:47:24;1.50;86.80
1155;DHT22;566;48.414;9.118;2023-02-15T03:50:02;1.40;86.90
1155;DHT22;566;48.414;9.118;2023-02-15T03:52:30;1.40;86.60
1155;DHT22;566;48.414;9.118;2023-02-15T03:54:57;1.30;87.10
1155;DHT22;566;48.414;9.118;2023-02-15T03:57:26;1.10;88.00
1155;DHT22;566;48.414;9.118;2023-02-15T04:00:22;0.90;89.80
1155;DHT22;566;48.414;9.118;2023-02-15T04:05:40;0.30;91.70
1155;DHT22;566;48.414;9.118;2023-02-15T04:08:06;0.00;92.30
1155;DHT22;566;48.414;9.118;2023-02-15T04:10:32;-0.10;93.10
1155;DHT22;566;48.414;9.118;2023-02-15T04:13:16;-0.20;93.70
1155;DHT22;566;48.414;9.118;2023-02-15T04:15:43;-0.20;93.60
1155;DHT22;566;48.414;9.118;2023-02-15T04:18:32;-0.10;93.90
1155;DHT22;566;48.414;9.118;2023-02-15T04:21:20;0.00;93.70
1155;DHT22;566;48.414;9.118;2023-02-15T04:24:05;0.20;93.30
1155;DHT22;566;48.414;9.118;2023-02-15T04:26:49;0.50;92.00
1155;DHT22;566;48.414;9.118;2023-02-15T04:29:18;0.90;90.40
1155;DHT22;566;48.414;9.118;2023-02-15T04:31:45;1.20;89.20
1155;DHT22;566;48.414;9.118;2023-02-15T04:34:10;1.30;88.20
1155;DHT22;566;48.414;9.118;2023-02-15T04:36:40;1.50;87.90
1155;DHT22;566;48.414;9.118;2023-02-15T04:39:06;1.50;87.70
1155;DHT22;566;48.414;9.118;2023-02-15T04:41:32;1.60;87.40
1155;DHT22;566;48.414;9.118;2023-02-15T04:43:58;1.50;87.60
1155;DHT22;566;48.414;9.118;2023-02-15T04:46:24;1.30;88.10
1155;DHT22;566;48.414;9.118;2023-02-15T04:48:50;1.10;89.10
1155;DHT22;566;48.414;9.118;2023-02-15T04:51:18;0.60;90.80
1155;DHT22;566;48.414;9.118;2023-02-15T04:53:44;0.40;91.70
1155;DHT22;566;48.414;9.118;2023-02-15T04:56:09;0.30;92.20
1155;DHT22;566;48.414;9.118;2023-02-15T04:58:35;0.10;92.30
1155;DHT22;566;48.414;9.118;2023-02-15T05:01:05;0.30;91.90
1155;DHT22;566;48.414;9.118;2023-02-15T05:03:31;0.70;90.80
1155;DHT22;566;48.414;9.118;2023-02-15T05:05:56;1.00;89.20
1155;DHT22;566;48.414;9.118;2023-02-15T05:08:22;1.20;88.20
1155;DHT22;566;48.414;9.118;2023-02-15T05:10:48;1.40;87.70
1155;DHT22;566;48.414;9.118;2023-02-15T05:13:14;1.50;87.30
1155;DHT22;566;48.414;9.118;2023-02-15T05:15:40;1.60;86.70
1155;DHT22;566;48.414;9.118;2023-02-15T05:18:06;1.70;86.80
1155;DHT22;566;48.414;9.118;2023-02-15T05:20:33;1.70;86.70
1155;DHT22;566;48.414;9.118;2023-02-15T05:22:58;1.60;86.60
1155;DHT22;566;48.414;9.118;2023-02-15T05:25:24;1.40;87.70
1155;DHT22;566;48.414;9.118;2023-02-15T05:28:10;1.10;88.00
1155;DHT22;566;48.414;9.118;2023-02-15T05:30:48;0.90;88.80
1155;DHT22;566;48.414;9.118;2023-02-15T05:33:14;0.70;89.60
1155;DHT22;566;48.414;9.118;2023-02-15T05:35:40;0.40;90.10
1155;DHT22;566;48.414;9.118;2023-02-15T05:38:05;0.30;91.00
1155;DHT22;566;48.414;9.118;2023-02-15T05:40:31;0.10;91.80
1155;DHT22;566;48.414;9.118;2023-02-15T05:42:57;-0.10;92.60
1155;DHT22;566;48.414;9.118;2023-02-15T05:45:23;-0.30;93.60
1155;DHT22;566;48.414;9.118;2023-02-15T05:47:48;-0.40;94.30
1155;DHT22;566;48.414;9.118;2023-02-15T05:50:14;-0.40;94.70
1155;DHT22;566;48.414;9.118;2023-02-15T05:52:40;-0.40;94.60
1155;DHT22;566;48.414;9.118;2023-02-15T05:55:06;-0.50;94.50
1155;DHT22;566;48.414;9.118;2023-02-15T05:57:32;-0.50;94.70
1155;DHT22;566;48.414;9.118;2023-02-15T05:59:57;-0.60;94.50
1155;DHT22;566;48.414;9.118;2023-02-15T06:02:23;-0.60;95.00
1155;DHT22;566;48.414;9.118;2023-02-15T06:04:49;-0.60;95.20
1155;DHT22;566;48.414;9.118;2023-02-15T06:07:14;-0.50;94.80
1155;DHT22;566;48.414;9.118;2023-02-15T06:09:40;-0.50;94.50
1155;DHT22;566;48.414;9.118;2023-02-15T06:12:07;-0.40;94.70
1155;DHT22;566;48.414;9.118;2023-02-15T06:14:33;-0.40;94.40
1155;DHT22;566;48.414;9.118;2023-02-15T06:16:58;-0.50;94.70
1155;DHT22;566;48.414;9.118;2023-02-15T06:19:24;-0.50;94.90
1155;DHT22;566;48.414;9.118;2023-02-15T06:21:52;-0.50;94.90
1155;DHT22;566;48.414;9.118;2023-02-15T06:24:18;-0.40;94.50
1155;DHT22;566;48.414;9.118;2023-02-15T06:26:43;-0.40;94.30
1155;DHT22;566;48.414;9.118;2023-02-15T06:29:09;-0.40;93.90
1155;DHT22;566;48.414;9.118;2023-02-15T06:31:34;-0.40;94.20
1155;DHT22;566;48.414;9.118;2023-02-15T06:34:00;-0.30;94.20
1155;DHT22;566;48.414;9.118;2023-02-15T06:36:28;-0.30;94.30
1155;DHT22;566;48.414;9.118;2023-02-15T06:38:54;-0.20;93.90
1155;DHT22;566;48.414;9.118;2023-02-15T06:41:20;-0.10;93.80
1155;DHT22;566;48.414;9.118;2023-02-15T06:43:46;-0.20;93.80
1155;DHT22;566;48.414;9.118;2023-02-15T06:46:11;-0.20;94.20
1155;DHT22;566;48.414;9.118;2023-02-15T06:48:37;-0.10;94.10
1155;DHT22;566;48.414;9.118;2023-02-15T06:51:03;-0.10;93.70
1155;DHT22;566;48.414;9.118;2023-02-15T06:53:28;-0.10;93.20
1155;DHT22;566;48.414;9.118;2023-02-15T06:56:02;0.00;93.20
1155;DHT22;566;48.414;9.118;2023-02-15T06:58:28;0.00;93.40
1155;DHT22;566;48.414;9.118;2023-02-15T07:00:54;0.10;93.20
1155;DHT22;566;48.414;9.118;2023-02-15T07:03:19;0.00;93.40
1155;DHT22;566;48.414;9.118;2023-02-15T07:05:45;0.00;93.60
1155;DHT22;566;48.414;9.118;2023-02-15T07:08:12;0.00;94.00
1155;DHT22;566;48.414;9.118;2023-02-15T07:10:38;0.00;93.90
1155;DHT22;566;48.414;9.118;2023-02-15T07:13:06;0.10;93.80
1155;DHT22;566;48.414;9.118;2023-02-15T07:15:32;0.20;93.50
1155;DHT22;566;48.414;9.118;2023-02-15T07:17:58;0.30;92.70
1155;DHT22;566;48.414;9.118;2023-02-15T07:20:24;0.40;92.40
1155;DHT22;566;48.414;9.118;2023-02-15T07:22:50;0.60;92.20
1155;DHT22;566;48.414;9.118;2023-02-15T07:25:17;0.60;92.40
1155;DHT22;566;48.414;9.118;2023-02-15T07:27:43;0.70;92.60
1155;DHT22;566;48.414;9.118;2023-02-15T07:30:11;0.90;91.70
1155;DHT22;566;48.414;9.118;2023-02-15T07:32:37;1.00;91.30
1155;DHT22;566;48.414;9.118;2023-02-15T07:35:23;1.00;90.40
1155;DHT22;566;48.414;9.118;2023-02-15T07:37:56;1.10;91.20
1155;DHT22;566;48.414;9.118;2023-02-15T07:40:25;1.10;91.60
1155;DHT22;566;48.414;9.118;2023-02-15T07:42:51;1.20;92.00
1155;DHT22;566;48.414;9.118;2023-02-15T07:45:18;1.30;92.20
1155;DHT22;566;48.414;9.118;2023-02-15T07:47:44;1.30;92.10
1155;DHT22;566;48.414;9.118;2023-02-15T07:50:09;1.40;92.00
1155;DHT22;566;48.414;9.118;2023-02-15T07:52:35;1.50;92.00
1155;DHT22;566;48.414;9.118;2023-02-15T07:55:00;1.60;91.80
1155;DHT22;566;48.414;9.118;2023-02-15T07:57:26;1.60;91.90
1155;DHT22;566;48.414;9.118;2023-02-15T07:59:51;1.80;91.50
1155;DHT22;566;48.414;9.118;2023-02-15T08:02:17;2.00;91.40
1155;DHT22;566;48.414;9.118;2023-02-15T08:04:42;2.20;91.30
1155;DHT22;566;48.414;9.118;2023-02-15T08:07:08;2.40;91.30
1155;DHT22;566;48.414;9.118;2023-02-15T08:09:33;2.70;91.00
1155;DHT22;566;48.414;9.118;2023-02-15T08:11:59;2.90;90.80
1155;DHT22;566;48.414;9.118;2023-02-15T08:14:26;3.10;89.30
1155;DHT22;566;48.414;9.118;2023-02-15T08:16:54;3.40;89.00
1155;DHT22;566;48.414;9.118;2023-02-15T08:22:14;4.10;87.20
1155;DHT22;566;48.414;9.118;2023-02-15T08:24:40;5.70;85.80
1155;DHT22;566;48.414;9.118;2023-02-15T08:27:08;8.20;79.50
1155;DHT22;566;48.414;9.118;2023-02-15T08:29:35;10.30;73.80
1155;DHT22;566;48.414;9.118;2023-02-15T08:32:04;12.00;67.10
1155;DHT22;566;48.414;9.118;2023-02-15T08:34:33;12.40;63.40
1155;DHT22;566;48.414;9.118;2023-02-15T08:36:59;13.00;62.80
1155;DHT22;566;48.414;9.118;2023-02-15T08:39:26;12.50;62.30
1155;DHT22;566;48.414;9.118;2023-02-15T08:41:51;11.60;63.80
1155;DHT22;566;48.414;9.118;2023-02-15T08:44:18;10.30;67.20
1155;DHT22;566;48.414;9.118;2023-02-15T08:46:45;9.40;70.40
1155;DHT22;566;48.414;9.118;2023-02-15T08:49:13;8.70;73.10
1155;DHT22;566;48.414;9.118;2023-02-15T08:51:40;8.50;74.70
1155;DHT22;566;48.414;9.118;2023-02-15T08:54:08;9.10;74.80
1155;DHT22;566;48.414;9.118;2023-02-15T08:56:40;10.60;72.40
1155;DHT22;566;48.414;9.118;2023-02-15T08:59:11;12.50;68.60
1155;DHT22;566;48.414;9.118;2023-02-15T09:01:37;14.10;65.20
1155;DHT22;566;48.414;9.118;2023-02-15T09:04:04;15.40;63.30
1155;DHT22;566;48.414;9.118;2023-02-15T09:06:31;15.90;60.30
1155;DHT22;566;48.414;9.118;2023-02-15T09:08:57;16.40;58.60
1155;DHT22;566;48.414;9.118;2023-02-15T09:11:27;16.80;57.20
1155;DHT22;566;48.414;9.118;2023-02-15T09:13:59;17.30;56.30
1155;DHT22;566;48.414;9.118;2023-02-15T09:16:27;17.80;55.50
1155;DHT22;566;48.414;9.118;2023-02-15T09:18:54;18.00;55.30
1155;DHT22;566;48.414;9.118;2023-02-15T09:21:22;18.80;54.60
1155;DHT22;566;48.414;9.118;2023-02-15T09:23:49;19.00;54.70
1155;DHT22;566;48.414;9.118;2023-02-15T09:26:17;18.70;55.00
1155;DHT22;566;48.414;9.118;2023-02-15T09:28:44;18.90;55.00
1155;DHT22;566;48.414;9.118;2023-02-15T09:31:15;19.50;54.00
1155;DHT22;566;48.414;9.118;2023-02-15T09:33:42;19.70;53.80
1155;DHT22;566;48.414;9.118;2023-02-15T09:36:30;19.30;54.50
1155;DHT22;566;48.414;9.118;2023-02-15T09:38:58;18.90;54.40
1155;DHT22;566;48.414;9.118;2023-02-15T09:44:34;17.10;56.60
1155;DHT22;566;48.414;9.118;2023-02-15T09:50:12;16.30;57.80
1155;DHT22;566;48.414;9.118;2023-02-15T09:56:05;17.00;55.50
1155;DHT22;566;48.414;9.118;2023-02-15T10:01:21;16.90;55.70
1155;DHT22;566;48.414;9.118;2023-02-15T10:09:22;17.60;54.00
1155;DHT22;566;48.414;9.118;2023-02-15T10:15:32;18.10;52.80
1155;DHT22;566;48.414;9.118;2023-02-15T10:26:34;19.40;51.70
1155;DHT22;566;48.414;9.118;2023-02-15T10:31:50;19.80;50.20
1155;DHT22;566;48.414;9.118;2023-02-15T10:34:19;19.90;49.60
1155;DHT22;566;48.414;9.118;2023-02-15T10:45:47;19.70;47.70
1155;DHT22;566;48.414;9.118;2023-02-15T10:48:39;19.60;43.80
1155;DHT22;566;48.414;9.118;2023-02-15T10:51:26;19.90;44.10
1155;DHT22;566;48.414;9.118;2023-02-15T10:59:50;18.70;43.80
1155;DHT22;566;48.414;9.118;2023-02-15T11:05:46;18.90;42.70
1155;DHT22;566;48.414;9.118;2023-02-15T11:08:15;19.40;43.30
1155;DHT22;566;48.414;9.118;2023-02-15T11:10:46;19.20;43.00
1155;DHT22;566;48.414;9.118;2023-02-15T11:13:18;18.70;43.50
1155;DHT22;566;48.414;9.118;2023-02-15T11:15:56;18.30;43.40
1155;DHT22;566;48.414;9.118;2023-02-15T11:18:41;18.20;44.60
1155;DHT22;566;48.414;9.118;2023-02-15T11:21:36;18.80;44.00
1155;DHT22;566;48.414;9.118;2023-02-15T11:24:19;18.70;43.40
1155;DHT22;566;48.414;9.118;2023-02-15T11:27:03;18.40;44.60
1155;DHT22;566;48.414;9.118;2023-02-15T11:38:00;17.80;45.60
1155;DHT22;566;48.414;9.118;2023-02-15T11:45:42;17.40;48.60
1155;DHT22;566;48.414;9.118;2023-02-15T11:48:13;17.40;48.80
1155;DHT22;566;48.414;9.118;2023-02-15T11:50:40;17.40;50.30
1155;DHT22;566;48.414;9.118;2023-02-15T11:53:18;17.30;49.80
1155;DHT22;566;48.414;9.118;2023-02-15T11:55:46;17.20;50.00
1155;DHT22;566;48.414;9.118;2023-02-15T12:04:07;17.20;50.90
1155;DHT22;566;48.414;9.118;2023-02-15T12:06:38;17.40;50.50
1155;DHT22;566;48.414;9.118;2023-02-15T12:09:33;17.70;49.80
1155;DHT22;566;48.414;9.118;2023-02-15T12:12:20;17.70;49.90
1155;DHT22;566;48.414;9.118;2023-02-15T12:14:49;17.70;49.30
1155;DHT22;566;48.414;9.118;2023-02-15T12:17:16;17.70;49.30
1155;DHT22;566;48.414;9.118;2023-02-15T12:19:42;17.80;49.00
1155;DHT22;566;48.414;9.118;2023-02-15T12:24:46;18.30;47.60
1155;DHT22;566;48.414;9.118;2023-02-15T12:27:17;18.20;49.60
1155;DHT22;566;48.414;9.118;2023-02-15T12:29:53;18.10;48.20
1155;DHT22;566;48.414;9.118;2023-02-15T12:32:26;17.80;48.50
1155;DHT22;566;48.414;9.118;2023-02-15T12:34:55;17.80;48.90
1155;DHT22;566;48.414;9.118;2023-02-15T12:37:27;17.60;49.20
1155;DHT22;566;48.414;9.118;2023-02-15T12:39:58;17.70;49.50
1155;DHT22;566;48.414;9.118;2023-02-15T12:42:25;17.60;49.70
1155;DHT22;566;48.414;9.118;2023-02-15T12:45:02;17.60;50.00
1155;DHT22;566;48.414;9.118;2023-02-15T12:47:30;17.40;50.00
1155;DHT22;566;48.414;9.118;2023-02-15T12:50:21;17.50;50.00
1155;DHT22;566;48.414;9.118;2023-02-15T12:52:48;17.60;50.90
1155;DHT22;566;48.414;9.118;2023-02-15T12:55:22;17.80;50.30
1155;DHT22;566;48.414;9.118;2023-02-15T12:57:48;18.00;50.80
1155;DHT22;566;48.414;9.118;2023-02-15T13:02:52;17.60;50.70
1155;DHT22;566;48.414;9.118;2023-02-15T13:05:38;17.40;50.90
1155;DHT22;566;48.414;9.118;2023-02-15T13:08:14;17.50;50.10
1155;DHT22;566;48.414;9.118;2023-02-15T13:10:52;17.60;49.00
1155;DHT22;566;48.414;9.118;2023-02-15T13:13:21;17.20;48.20
1155;DHT22;566;48.414;9.118;2023-02-15T13:15:51;17.10;46.70
1155;DHT22;566;48.414;9.118;2023-02-15T13:18:39;17.00;47.30
1155;DHT22;566;48.414;9.118;2023-02-15T13:21:19;16.90;48.40
1155;DHT22;566;48.414;9.118;2023-02-15T13:23:56;16.70;49.90
1155;DHT22;566;48.414;9.118;2023-02-15T13:26:26;16.80;48.90
1155;DHT22;566;48.414;9.118;2023-02-15T13:29:16;16.80;49.30
1155;DHT22;566;48.414;9.118;2023-02-15T13:31:42;16.90;49.60
1155;DHT22;566;48.414;9.118;2023-02-15T13:37:12;16.70;50.60
1155;DHT22;566;48.414;9.118;2023-02-15T13:39:54;16.60;50.60
1155;DHT22;566;48.414;9.118;2023-02-15T13:42:41;16.50;50.80
1155;DHT22;566;48.414;9.118;2023-02-15T13:45:28;16.30;51.70
1155;DHT22;566;48.414;9.118;2023-02-15T13:55:55;16.10;49.80
1155;DHT22;566;48.414;9.118;2023-02-15T14:01:44;16.10;49.70
1155;DHT22;566;48.414;9.118;2023-02-15T14:04:23;16.30;50.70
1155;DHT22;566;48.414;9.118;2023-02-15T14:07:30;16.40;52.70
1155;DHT22;566;48.414;9.118;2023-02-15T14:10:30;16.30;51.80
1155;DHT22;566;48.414;9.118;2023-02-15T14:16:03;16.30;48.90
1155;DHT22;566;48.414;9.118;2023-02-15T14:21:13;16.10;51.10
1155;DHT22;566;48.414;9.118;2023-02-15T14:24:02;16.20;49.30
1155;DHT22;566;48.414;9.118;2023-02-15T14:29:38;16.60;51.30
1155;DHT22;566;48.414;9.118;2023-02-15T14:32:13;16.50;49.50
1155;DHT22;566;48.414;9.118;2023-02-15T14:34:55;16.40;49.70
1155;DHT22;566;48.414;9.118;2023-02-15T14:37:39;16.50;49.10
1155;DHT22;566;48.414;9.118;2023-02-15T14:40:19;16.70;49.70
1155;DHT22;566;48.414;9.118;2023-02-15T14:43:19;16.90;47.50
1155;DHT22;566;48.414;9.118;2023-02-15T14:46:07;17.30;48.00
1155;DHT22;566;48.414;9.118;2023-02-15T14:48:53;17.20;49.10
1155;DHT22;566;48.414;9.118;2023-02-15T14:52:00;17.70;46.40
1155;DHT22;566;48.414;9.118;2023-02-15T15:02:18;18.80;47.30
1155;DHT22;566;48.414;9.118;2023-02-15T15:07:45;18.70;50.40
1155;DHT22;566;48.414;9.118;2023-02-15T15:12:49;18.30;52.10
1155;DHT22;566;48.414;9.118;2023-02-15T15:25:46;18.00;51.40
1155;DHT22;566;48.414;9.118;2023-02-15T15:45:33;20.90;51.10
1155;DHT22;566;48.414;9.118;2023-02-15T15:50:45;21.40;50.20
1155;DHT22;566;48.414;9.118;2023-02-15T15:53:32;21.50;50.10
1155;DHT22;566;48.414;9.118;2023-02-15T15:56:05;21.20;49.80
1155;DHT22;566;48.414;9.118;2023-02-15T15:58:33;21.00;51.00
1155;DHT22;566;48.414;9.118;2023-02-15T16:01:05;20.50;50.50
1155;DHT22;566;48.414;9.118;2023-02-15T16:03:32;20.00;51.60
1155;DHT22;566;48.414;9.118;2023-02-15T16:05:58;19.60;52.50
1155;DHT22;566;48.414;9.118;2023-02-15T16:08:29;19.10;53.10
1155;DHT22;566;48.414;9.118;2023-02-15T16:10:55;18.60;53.00
1155;DHT22;566;48.414;9.118;2023-02-15T16:13:22;18.20;52.80
1155;DHT22;566;48.414;9.118;2023-02-15T16:15:50;17.60;54.20
1155;DHT22;566;48.414;9.118;2023-02-15T16:18:19;16.80;56.10
1155;DHT22;566;48.414;9.118;2023-02-15T16:20:53;15.90;58.00
1155;DHT22;566;48.414;9.118;2023-02-15T16:28:54;13.10;61.20
1155;DHT22;566;48.414;9.118;2023-02-15T16:31:21;12.00;63.40
1155;DHT22;566;48.414;9.118;2023-02-15T16:33:53;11.10;65.00
1155;DHT22;566;48.414;9.118;2023-02-15T16:41:24;9.50;70.80
1155;DHT22;566;48.414;9.118;2023-02-15T16:43:51;9.00;72.50
1155;DHT22;566;48.414;9.118;2023-02-15T16:48:46;8.30;74.60
1155;DHT22;566;48.414;9.118;2023-02-15T16:51:22;8.00;76.70
1155;DHT22;566;48.414;9.118;2023-02-15T16:53:49;7.60;78.50
1155;DHT22;566;48.414;9.118;2023-02-15T16:56:15;7.30;79.90
1155;DHT22;566;48.414;9.118;2023-02-15T16:58:44;7.00;79.70
1155;DHT22;566;48.414;9.118;2023-02-15T17:01:13;7.10;79.10
1155;DHT22;566;48.414;9.118;2023-02-15T17:03:40;7.00;78.60
1155;DHT22;566;48.414;9.118;2023-02-15T17:08:44;6.80;79.70
1155;DHT22;566;48.414;9.118;2023-02-15T17:11:18;6.90;78.90
1155;DHT22;566;48.414;9.118;2023-02-15T17:16:35;7.10;77.60
1155;DHT22;566;48.414;9.118;2023-02-15T17:19:02;7.10;76.50
1155;DHT22;566;48.414;9.118;2023-02-15T17:21:37;7.20;75.80
1155;DHT22;566;48.414;9.118;2023-02-15T17:24:05;7.00;76.50
1155;DHT22;566;48.414;9.118;2023-02-15T17:26:34;7.00;76.60
1155;DHT22;566;48.414;9.118;2023-02-15T17:29:09;7.00;77.10
1155;DHT22;566;48.414;9.118;2023-02-15T17:31:36;6.90;77.60
1155;DHT22;566;48.414;9.118;2023-02-15T17:34:02;6.80;77.40
1155;DHT22;566;48.414;9.118;2023-02-15T17:36:29;6.80;77.50
1155;DHT22;566;48.414;9.118;2023-02-15T17:39:00;6.70;77.50
1155;DHT22;566;48.414;9.118;2023-02-15T17:41:30;6.70;77.70
1155;DHT22;566;48.414;9.118;2023-02-15T17:43:56;6.60;78.00
1155;DHT22;566;48.414;9.118;2023-02-15T17:46:22;6.60;77.70
1155;DHT22;566;48.414;9.118;2023-02-15T17:48:52;6.60;77.80
1155;DHT22;566;48.414;9.118;2023-02-15T17:51:19;6.60;78.00
1155;DHT22;566;48.414;9.118;2023-02-15T17:53:46;6.60;77.80
1155;DHT22;566;48.414;9.118;2023-02-15T17:56:31;6.50;77.70
1155;DHT22;566;48.414;9.118;2023-02-15T17:58:57;6.40;78.10
1155;DHT22;566;48.414;9.118;2023-02-15T18:01:23;6.40;78.60
1155;DHT22;566;48.414;9.118;2023-02-15T18:04:14;6.20;80.00
1155;DHT22;566;48.414;9.118;2023-02-15T18:06:58;5.90;80.80
1155;DHT22;566;48.414;9.118;2023-02-15T18:09:43;5.80;80.70
1155;DHT22;566;48.414;9.118;2023-02-15T18:12:30;5.70;81.50
1155;DHT22;566;48.414;9.118;2023-02-15T18:14:57;5.70;81.20
1155;DHT22;566;48.414;9.118;2023-02-15T18:17:38;5.70;81.40
1155;DHT22;566;48.414;9.118;2023-02-15T18:20:09;5.70;81.70
1155;DHT22;566;48.414;9.118;2023-02-15T18:22:42;5.70;81.50
1155;DHT22;566;48.414;9.118;2023-02-15T18:25:16;5.80;81.10
1155;DHT22;566;48.414;9.118;2023-02-15T18:27:42;5.90;80.60
1155;DHT22;566;48.414;9.118;2023-02-15T18:30:13;6.10;80.50
1155;DHT22;566;48.414;9.118;2023-02-15T18:32:39;6.20;80.40
1155;DHT22;566;48.414;9.118;2023-02-15T18:35:05;6.30;80.60
1155;DHT22;566;48.414;9.118;2023-02-15T18:37:32;6.30;81.00
1155;DHT22;566;48.414;9.118;2023-02-15T18:39:59;6.30;81.20
1155;DHT22;566;48.414;9.118;2023-02-15T18:42:27;6.10;82.20
1155;DHT22;566;48.414;9.118;2023-02-15T18:44:59;5.70;83.60
1155;DHT22;566;48.414;9.118;2023-02-15T18:47:25;5.40;85.40
1155;DHT22;566;48.414;9.118;2023-02-15T18:49:51;5.20;86.30
1155;DHT22;566;48.414;9.118;2023-02-15T18:52:19;5.10;87.20
1155;DHT22;566;48.414;9.118;2023-02-15T18:54:46;5.20;88.10
1155;DHT22;566;48.414;9.118;2023-02-15T18:57:13;5.30;87.90
1155;DHT22;566;48.414;9.118;2023-02-15T18:59:40;5.30;87.90
1155;DHT22;566;48.414;9.118;2023-02-15T19:02:14;5.20;88.90
1155;DHT22;566;48.414;9.118;2023-02-15T19:04:43;5.20;89.80
1155;DHT22;566;48.414;9.118;2023-02-15T19:07:22;5.30;90.20
1155;DHT22;566;48.414;9.118;2023-02-15T19:09:53;5.40;90.40
1155;DHT22;566;48.414;9.118;2023-02-15T19:12:20;5.50;90.50
1155;DHT22;566;48.414;9.118;2023-02-15T19:14:47;5.70;90.60
1155;DHT22;566;48.414;9.118;2023-02-15T19:17:16;5.70;90.90
1155;DHT22;566;48.414;9.118;2023-02-15T19:19:42;5.80;91.00
1155;DHT22;566;48.414;9.118;2023-02-15T19:24:43;5.90;91.70
1155;DHT22;566;48.414;9.118;2023-02-15T19:27:22;6.00;91.60
1155;DHT22;566;48.414;9.118;2023-02-15T19:29:49;5.80;91.40
1155;DHT22;566;48.414;9.118;2023-02-15T19:32:15;5.40;91.50
1155;DHT22;566;48.414;9.118;2023-02-15T19:34:42;5.00;92.90
1155;DHT22;566;48.414;9.118;2023-02-15T19:37:34;4.90;94.00
1155;DHT22;566;48.414;9.118;2023-02-15T19:40:02;4.90;94.50
1155;DHT22;566;48.414;9.118;2023-02-15T19:42:28;4.80;94.50
1155;DHT22;566;48.414;9.118;2023-02-15T19:44:54;4.40;94.80
1155;DHT22;566;48.414;9.118;2023-02-15T19:47:20;4.20;95.70
1155;DHT22;566;48.414;9.118;2023-02-15T19:49:46;4.20;96.40
1155;DHT22;566;48.414;9.118;2023-02-15T19:52:17;4.30;96.60
1155;DHT22;566;48.414;9.118;2023-02-15T19:54:44;4.50;96.40
1155;DHT22;566;48.414;9.118;2023-02-15T19:57:11;4.90;95.70
1155;DHT22;566;48.414;9.118;2023-02-15T19:59:37;5.10;95.00